createdAt,value
2022-10-20T00:01:17.820Z,20.93
2022-10-20T00:03:45.605Z,20.87
2022-10-20T00:06:22.160Z,17.73
2022-10-20T00:08:49.588Z,14.40
2022-10-20T00:11:19.059Z,16.67
2022-10-20T00:13:48.053Z,12.07
2022-10-20T00:16:16.063Z,16.00
2022-10-20T00:18:43.465Z,19.53
2022-10-20T00:21:14.049Z,12.97
2022-10-20T00:23:41.589Z,16.07
2022-10-20T00:26:12.799Z,16.63
2022-10-20T00:28:43.100Z,19.53
2022-10-20T00:31:15.936Z,17.50
2022-10-20T00:33:42.705Z,15.27
2022-10-20T00:36:13.321Z,16.27
2022-10-20T00:38:40.092Z,14.93
2022-10-20T00:41:07.413Z,19.57
2022-10-20T00:44:18.930Z,19.83
2022-10-20T00:46:45.682Z,16.47
2022-10-20T00:49:24.021Z,18.13
2022-10-20T00:51:52.775Z,12.17
2022-10-20T00:54:25.909Z,16.13
2022-10-20T00:56:54.922Z,15.70
2022-10-20T00:59:25.852Z,17.10
2022-10-20T01:01:53.373Z,17.20
2022-10-20T01:04:22.805Z,15.40
2022-10-20T01:06:49.645Z,12.63
2022-10-20T01:09:16.415Z,17.53
2022-10-20T01:11:53.673Z,14.70
2022-10-20T01:14:39.393Z,13.53
2022-10-20T01:17:29.014Z,18.73
2022-10-20T01:20:16.782Z,16.20
2022-10-20T01:22:56.349Z,16.50
2022-10-20T01:25:49.377Z,18.87
2022-10-20T01:28:20.657Z,12.83
2022-10-20T01:30:53.315Z,16.67
2022-10-20T01:33:43.825Z,17.30
2022-10-20T01:36:22.528Z,16.97
2022-10-20T01:38:56.403Z,14.10
2022-10-20T01:41:50.289Z,16.07
2022-10-20T01:44:20.893Z,15.47
2022-10-20T01:46:48.578Z,15.40
2022-10-20T01:49:16.153Z,16.23
2022-10-20T01:51:42.979Z,14.57
2022-10-20T01:54:21.835Z,14.23
2022-10-20T01:57:07.046Z,15.70
2022-10-20T01:59:42.007Z,17.20
2022-10-20T02:02:46.048Z,13.57
2022-10-20T02:05:33.297Z,19.73
2022-10-20T02:08:38.912Z,15.13
2022-10-20T02:11:10.104Z,15.80
2022-10-20T02:13:38.847Z,18.27
2022-10-20T02:16:12.973Z,14.57
2022-10-20T02:18:44.378Z,14.57
2022-10-20T02:21:11.824Z,11.00
2022-10-20T02:23:42.776Z,15.63
2022-10-20T02:26:14.350Z,20.30
2022-10-20T02:28:44.950Z,13.43
2022-10-20T02:31:12.401Z,17.57
2022-10-20T02:33:40.148Z,16.37
2022-10-20T02:36:12.556Z,16.23
2022-10-20T02:38:39.310Z,13.27
2022-10-20T02:41:06.078Z,20.80
2022-10-20T02:43:32.920Z,15.30
2022-10-20T02:45:59.653Z,17.23
2022-10-20T02:48:26.480Z,14.60
2022-10-20T02:50:53.169Z,16.00
2022-10-20T02:53:19.932Z,14.33
2022-10-20T02:55:46.690Z,15.47
2022-10-20T02:58:13.543Z,14.60
2022-10-20T03:00:40.466Z,15.87
2022-10-20T03:03:07.225Z,16.07
2022-10-20T03:05:38.370Z,21.97
2022-10-20T03:08:05.276Z,17.43
2022-10-20T03:10:32.019Z,13.63
2022-10-20T03:12:58.876Z,14.03
2022-10-20T03:15:25.660Z,18.87
2022-10-20T03:17:52.403Z,15.63
2022-10-20T03:20:19.202Z,18.17
2022-10-20T03:22:46.019Z,14.20
2022-10-20T03:25:13.852Z,17.93
2022-10-20T03:27:40.592Z,17.73
2022-10-20T03:30:08.350Z,15.27
2022-10-20T03:32:35.504Z,13.30
2022-10-20T03:35:02.509Z,15.47
2022-10-20T03:37:29.269Z,15.77
2022-10-20T03:39:55.996Z,17.77
2022-10-20T03:42:22.730Z,13.47
2022-10-20T03:44:49.494Z,14.97
2022-10-20T03:47:16.324Z,17.10
2022-10-20T03:49:43.108Z,14.87
2022-10-20T03:52:09.807Z,14.73
2022-10-20T03:54:37.152Z,16.80
2022-10-20T03:57:06.933Z,16.37
2022-10-20T03:59:34.770Z,14.20
2022-10-20T04:02:01.795Z,15.90
2022-10-20T04:04:28.609Z,12.13
2022-10-20T04:06:55.461Z,15.13
2022-10-20T04:09:22.346Z,19.90
2022-10-20T04:11:49.085Z,16.40
2022-10-20T04:14:15.995Z,19.83
2022-10-20T04:16:43.721Z,13.17
2022-10-20T04:19:10.432Z,15.00
2022-10-20T04:21:37.115Z,13.93
2022-10-20T04:24:05.234Z,17.17
2022-10-20T04:26:32.011Z,12.93
2022-10-20T04:28:58.701Z,14.63
2022-10-20T04:31:25.469Z,19.20
2022-10-20T04:33:52.181Z,17.17
2022-10-20T04:36:18.968Z,19.67
2022-10-20T04:38:45.677Z,19.10
2022-10-20T04:41:12.446Z,16.03
2022-10-20T04:43:39.233Z,14.83
2022-10-20T04:46:08.670Z,16.60
2022-10-20T04:48:37.056Z,14.13
2022-10-20T04:51:09.311Z,22.67
2022-10-20T04:53:36.423Z,18.80
2022-10-20T04:56:04.475Z,19.60
2022-10-20T04:58:35.055Z,15.93
2022-10-20T05:01:09.888Z,16.93
2022-10-20T05:03:37.264Z,18.67
2022-10-20T05:06:17.319Z,17.93
2022-10-20T05:08:46.694Z,16.77
2022-10-20T05:11:15.794Z,16.80
2022-10-20T05:13:43.088Z,17.33
2022-10-20T05:16:10.817Z,15.17
2022-10-20T05:18:38.247Z,18.43
2022-10-20T05:21:16.322Z,18.53
2022-10-20T05:23:44.145Z,16.87
2022-10-20T05:26:14.505Z,18.93
2022-10-20T05:28:44.859Z,19.87
2022-10-20T05:31:11.980Z,17.67
2022-10-20T05:33:39.576Z,17.50
2022-10-20T05:36:11.170Z,16.03
2022-10-20T05:38:41.861Z,16.87
2022-10-20T05:41:14.421Z,15.80
2022-10-20T05:43:41.670Z,18.03
2022-10-20T05:46:09.437Z,19.50
2022-10-20T05:48:39.486Z,16.50
2022-10-20T05:51:14.873Z,17.53
2022-10-20T05:53:44.982Z,17.50
2022-10-20T05:56:14.609Z,18.73
2022-10-20T05:58:42.772Z,17.53
2022-10-20T06:01:21.352Z,15.57
2022-10-20T06:03:59.324Z,16.50
2022-10-20T06:06:29.725Z,17.23
2022-10-20T06:08:58.477Z,17.30
2022-10-20T06:11:25.901Z,22.67
2022-10-20T06:13:53.550Z,21.20
2022-10-20T06:16:27.456Z,17.97
2022-10-20T06:18:54.556Z,17.07
2022-10-20T06:21:26.641Z,20.77
2022-10-20T06:23:54.017Z,18.43
2022-10-20T06:26:25.565Z,19.83
2022-10-20T06:28:59.862Z,20.03
2022-10-20T06:31:39.225Z,22.70
2022-10-20T06:34:08.295Z,17.23
2022-10-20T06:36:42.427Z,20.97
2022-10-20T06:39:12.996Z,22.53
2022-10-20T06:41:40.117Z,19.20
2022-10-20T06:44:07.426Z,18.73
2022-10-20T06:46:38.100Z,17.93
2022-10-20T06:49:07.749Z,21.73
2022-10-20T06:51:36.060Z,18.90
2022-10-20T06:54:03.077Z,20.37
2022-10-20T06:56:32.541Z,18.43
2022-10-20T06:59:02.603Z,18.87
2022-10-20T07:01:34.369Z,23.03
2022-10-20T07:04:05.161Z,16.60
2022-10-20T07:06:35.338Z,20.90
2022-10-20T07:09:04.408Z,22.30
2022-10-20T07:11:31.971Z,18.87
2022-10-20T07:13:59.675Z,18.37
2022-10-20T07:16:29.169Z,18.33
2022-10-20T07:18:57.320Z,19.33
2022-10-20T07:21:34.949Z,19.87
2022-10-20T07:24:06.244Z,19.97
2022-10-20T07:26:38.892Z,20.60
2022-10-20T07:29:06.034Z,19.00
2022-10-20T07:31:39.431Z,21.20
2022-10-20T07:34:26.264Z,18.57
2022-10-20T07:36:53.970Z,18.87
2022-10-20T07:39:21.195Z,17.47
2022-10-20T07:41:48.397Z,20.00
2022-10-20T07:44:15.919Z,17.57
2022-10-20T07:46:42.755Z,16.80
2022-10-20T07:49:43.074Z,18.10
2022-10-20T07:51:56.960Z,19.37
2022-10-20T07:54:23.670Z,17.03
2022-10-20T07:56:50.593Z,21.47
2022-10-20T07:59:17.824Z,17.20
2022-10-20T08:01:44.770Z,19.00
2022-10-20T08:04:11.679Z,16.43
2022-10-20T08:06:39.551Z,20.03
2022-10-20T08:09:07.532Z,16.40
2022-10-20T08:11:34.996Z,19.07
2022-10-20T08:14:01.938Z,16.57
2022-10-20T08:16:31.725Z,16.50
2022-10-20T08:19:22.943Z,18.60
2022-10-20T08:21:47.969Z,18.00
2022-10-20T08:24:14.758Z,16.00
2022-10-20T08:26:41.446Z,15.63
2022-10-20T08:29:08.889Z,15.83
2022-10-20T08:31:35.739Z,17.03
2022-10-20T08:34:05.718Z,16.93
2022-10-20T08:36:32.644Z,16.70
2022-10-20T08:39:03.452Z,17.90
2022-10-20T08:41:55.514Z,17.37
2022-10-20T08:44:29.249Z,18.60
2022-10-20T08:46:56.745Z,18.90
2022-10-20T08:49:33.720Z,16.10
2022-10-20T08:52:01.233Z,17.60
2022-10-20T08:54:29.386Z,17.43
2022-10-20T08:56:56.215Z,17.37
2022-10-20T08:59:30.230Z,15.53
2022-10-20T09:01:58.046Z,20.10
2022-10-20T09:04:35.372Z,16.03
2022-10-20T09:07:12.996Z,18.17
2022-10-20T09:09:40.039Z,17.23
2022-10-20T09:12:12.348Z,18.60
2022-10-20T09:14:39.365Z,17.03
2022-10-20T09:17:12.547Z,17.07
2022-10-20T09:19:40.042Z,15.90
2022-10-20T09:22:07.640Z,17.33
2022-10-20T09:24:37.154Z,19.57
2022-10-20T09:27:39.852Z,19.33
2022-10-20T09:30:22.707Z,16.67
2022-10-20T09:32:50.284Z,17.63
2022-10-20T09:35:25.149Z,17.17
2022-10-20T09:38:20.003Z,16.37
2022-10-20T09:41:02.775Z,17.97
2022-10-20T09:43:29.574Z,18.73
2022-10-20T09:46:05.945Z,13.87
2022-10-20T09:48:36.669Z,17.20
2022-10-20T09:51:06.423Z,15.53
2022-10-20T09:53:37.292Z,17.30
2022-10-20T09:56:04.379Z,16.97
2022-10-20T09:58:33.234Z,16.27
2022-10-20T10:01:15.384Z,15.37
2022-10-20T10:03:45.893Z,13.63
2022-10-20T10:06:24.165Z,14.97
2022-10-20T10:08:50.918Z,17.57
2022-10-20T10:11:20.437Z,15.93
2022-10-20T10:13:50.023Z,15.13
2022-10-20T10:16:24.204Z,17.00
2022-10-20T10:19:01.769Z,15.40
2022-10-20T10:21:45.717Z,17.33
2022-10-20T10:24:47.880Z,15.87
2022-10-20T10:27:35.161Z,18.63
2022-10-20T10:30:29.238Z,17.67
2022-10-20T10:32:56.802Z,17.70
2022-10-20T10:35:54.154Z,17.07
2022-10-20T10:38:21.404Z,16.97
2022-10-20T10:40:56.739Z,16.53
2022-10-20T10:44:08.036Z,18.40
2022-10-20T10:46:46.404Z,20.07
2022-10-20T10:49:46.969Z,18.00
2022-10-20T10:52:31.862Z,18.07
2022-10-20T10:55:30.499Z,21.57
2022-10-20T10:58:24.253Z,19.73
2022-10-20T11:01:25.921Z,19.90
2022-10-20T11:04:11.234Z,20.43
2022-10-20T11:06:42.504Z,16.30
2022-10-20T11:09:23.834Z,19.83
2022-10-20T11:12:18.793Z,22.27
2022-10-20T11:14:59.517Z,22.93
2022-10-20T11:17:32.331Z,24.47
2022-10-20T11:20:10.345Z,19.23
2022-10-20T11:22:59.789Z,20.37
2022-10-20T11:26:03.174Z,22.00
2022-10-20T11:28:44.184Z,20.43
2022-10-20T11:31:42.142Z,20.93
2022-10-20T11:34:24.245Z,21.23
2022-10-20T11:37:07.806Z,20.43
2022-10-20T11:39:42.130Z,20.27
2022-10-20T11:42:39.711Z,20.60
2022-10-20T11:45:24.584Z,21.53
2022-10-20T11:47:57.995Z,22.67
2022-10-20T11:50:25.751Z,24.03
2022-10-20T11:53:28.365Z,19.50
2022-10-20T11:56:10.073Z,25.67
2022-10-20T11:58:53.954Z,27.97
2022-10-20T12:01:35.338Z,21.73
2022-10-20T12:04:17.606Z,28.30
2022-10-20T12:06:56.185Z,23.10
2022-10-20T12:09:55.968Z,25.70
2022-10-20T12:13:15.915Z,25.83
2022-10-20T12:15:52.200Z,25.37
2022-10-20T12:18:31.664Z,24.97
2022-10-20T12:21:10.615Z,30.93
2022-10-20T12:23:43.319Z,28.00
2022-10-20T12:26:34.809Z,26.53
2022-10-20T12:29:22.877Z,33.40
2022-10-20T12:32:27.319Z,26.63
2022-10-20T12:35:01.998Z,32.90
2022-10-20T12:37:33.999Z,29.53
2022-10-20T12:40:07.014Z,31.80
2022-10-20T12:42:38.470Z,29.93
2022-10-20T12:45:36.419Z,30.33
2022-10-20T12:48:04.613Z,33.17
2022-10-20T12:50:40.144Z,29.80
2022-10-20T12:53:29.403Z,32.40
2022-10-20T12:55:58.152Z,34.13
2022-10-20T12:58:28.283Z,34.83
2022-10-20T13:00:56.789Z,40.67
2022-10-20T13:03:51.020Z,35.83
2022-10-20T13:06:23.661Z,34.33
2022-10-20T13:09:10.399Z,35.13
2022-10-20T13:11:40.954Z,40.27
2022-10-20T13:14:22.063Z,41.90
2022-10-20T13:17:01.255Z,39.90
2022-10-20T13:19:44.490Z,39.30
2022-10-20T13:22:38.273Z,39.70
2022-10-20T13:25:32.072Z,39.47
2022-10-20T13:28:21.449Z,40.23
2022-10-20T13:31:13.232Z,34.33
2022-10-20T13:34:04.020Z,38.83
2022-10-20T13:36:50.070Z,39.20
2022-10-20T13:39:39.720Z,35.40
2022-10-20T13:42:12.592Z,33.60
2022-10-20T13:45:20.927Z,33.37
2022-10-20T13:48:05.983Z,37.80
2022-10-20T13:50:39.908Z,38.73
2022-10-20T13:53:28.348Z,35.37
2022-10-20T13:56:20.806Z,41.93
2022-10-20T13:59:24.690Z,38.87
2022-10-20T14:02:03.785Z,39.07
2022-10-20T14:04:30.601Z,36.90
2022-10-20T14:07:13.422Z,39.37
2022-10-20T14:09:45.375Z,41.67
2022-10-20T14:12:23.436Z,40.37
2022-10-20T14:14:50.375Z,41.87
2022-10-20T14:17:22.950Z,45.37
2022-10-20T14:19:50.250Z,41.30
2022-10-20T14:22:23.766Z,42.77
2022-10-20T14:24:57.648Z,40.37
2022-10-20T14:27:32.443Z,42.07
2022-10-20T14:30:03.183Z,37.67
2022-10-20T14:32:31.303Z,40.60
2022-10-20T14:35:03.587Z,37.43
2022-10-20T14:37:37.798Z,37.60
2022-10-20T14:40:08.477Z,38.80
2022-10-20T14:42:36.120Z,32.93
2022-10-20T14:45:04.371Z,34.97
2022-10-20T14:47:42.114Z,37.90
2022-10-20T14:50:25.098Z,37.93
2022-10-20T14:52:54.121Z,36.93
2022-10-20T14:55:33.734Z,36.77
2022-10-20T14:58:00.810Z,37.07
2022-10-20T15:00:35.300Z,40.60
2022-10-20T15:03:07.094Z,39.33
2022-10-20T15:05:43.630Z,42.87
2022-10-20T15:08:17.862Z,36.93
2022-10-20T15:10:45.549Z,39.67
2022-10-20T15:13:27.469Z,38.08
2022-10-20T15:15:56.561Z,37.03
2022-10-20T15:18:24.882Z,39.60
2022-10-20T15:20:53.503Z,36.67
2022-10-20T15:23:25.695Z,40.60
2022-10-20T15:26:05.943Z,36.27
2022-10-20T15:28:46.044Z,37.00
2022-10-20T15:31:12.759Z,40.73
2022-10-20T15:33:40.319Z,38.13
2022-10-20T15:36:33.308Z,41.03
2022-10-20T15:39:00.801Z,37.13
2022-10-20T15:41:30.741Z,41.03
2022-10-20T15:44:11.538Z,39.83
2022-10-20T15:46:38.567Z,42.33
2022-10-20T15:49:05.360Z,40.17
2022-10-20T15:51:34.743Z,46.23
2022-10-20T15:54:02.546Z,42.00
2022-10-20T15:56:30.133Z,42.73
2022-10-20T15:58:56.907Z,42.70
2022-10-20T16:01:23.865Z,42.87
2022-10-20T16:03:51.202Z,43.70
2022-10-20T16:06:19.178Z,43.80
2022-10-20T16:08:47.656Z,45.77
2022-10-20T16:11:16.572Z,46.00
2022-10-20T16:13:43.469Z,48.93
2022-10-20T16:16:18.813Z,52.30
2022-10-20T16:18:45.975Z,43.67
2022-10-20T16:21:12.836Z,46.90
2022-10-20T16:23:42.334Z,51.00
2022-10-20T16:26:13.291Z,47.63
2022-10-20T16:28:40.309Z,51.37
2022-10-20T16:31:10.236Z,43.13
2022-10-20T16:33:37.470Z,49.47
2022-10-20T16:38:39.054Z,49.30
2022-10-20T16:41:10.317Z,49.63
2022-10-20T16:43:39.349Z,52.27
2022-10-20T16:46:08.028Z,56.37
2022-10-20T16:48:37.632Z,54.00
2022-10-20T16:51:10.210Z,51.67
2022-10-20T16:53:37.255Z,53.27
2022-10-20T16:56:04.231Z,53.67
2022-10-20T16:58:31.012Z,53.33
2022-10-20T17:01:08.465Z,56.50
2022-10-20T17:03:36.881Z,48.67
2022-10-20T17:06:06.887Z,56.33
2022-10-20T17:08:34.789Z,55.27
2022-10-20T17:11:03.666Z,54.30
2022-10-20T17:13:34.030Z,54.00
2022-10-20T17:16:10.738Z,53.00
2022-10-20T17:18:38.048Z,53.30
2022-10-20T17:21:06.053Z,59.90
2022-10-20T17:23:37.396Z,59.83
2022-10-20T17:26:08.408Z,58.33
2022-10-20T17:28:36.923Z,60.23
2022-10-20T17:31:07.198Z,55.10
2022-10-20T17:33:34.959Z,56.93
2022-10-20T17:36:01.835Z,61.30
2022-10-20T17:38:31.669Z,54.60
2022-10-20T17:41:09.696Z,64.33
2022-10-20T17:43:36.701Z,60.50
2022-10-20T17:46:09.597Z,62.93
2022-10-20T17:48:37.163Z,63.47
2022-10-20T17:51:08.277Z,64.07
2022-10-20T17:53:36.466Z,69.77
2022-10-20T17:56:05.411Z,62.47
2022-10-20T17:58:33.858Z,57.87
2022-10-20T18:01:12.420Z,55.80
2022-10-20T18:03:39.995Z,62.00
2022-10-20T18:06:08.785Z,59.47
2022-10-20T18:08:35.868Z,55.10
2022-10-20T18:11:02.729Z,58.83
2022-10-20T18:13:29.411Z,63.57
2022-10-20T18:15:56.207Z,62.77
2022-10-20T18:18:23.059Z,62.63
2022-10-20T18:20:57.275Z,64.50
2022-10-20T18:23:24.336Z,63.97
2022-10-20T18:25:51.043Z,67.70
2022-10-20T18:28:18.832Z,68.10
2022-10-20T18:30:46.135Z,65.83
2022-10-20T18:33:12.875Z,67.63
2022-10-20T18:35:39.933Z,62.43
2022-10-20T18:38:06.858Z,65.50
2022-10-20T18:40:33.697Z,63.27
2022-10-20T18:43:00.808Z,60.03
2022-10-20T18:45:28.100Z,66.07
2022-10-20T18:47:54.879Z,63.87
2022-10-20T18:50:21.719Z,64.93
2022-10-20T18:52:48.409Z,62.87
2022-10-20T18:55:15.207Z,63.20
2022-10-20T18:57:42.193Z,61.67
2022-10-20T19:00:09.817Z,57.80
2022-10-20T19:02:36.671Z,54.53
2022-10-20T19:05:04.420Z,61.77
2022-10-20T19:07:34.823Z,62.70
2022-10-20T19:10:01.648Z,65.23
2022-10-20T19:12:28.375Z,68.30
2022-10-20T19:14:55.108Z,71.23
2022-10-20T19:17:21.871Z,65.10
2022-10-20T19:19:48.724Z,62.20
2022-10-20T19:22:21.928Z,66.10
2022-10-20T19:24:51.079Z,62.50
2022-10-20T19:27:26.486Z,59.97
2022-10-20T19:29:54.615Z,68.43
2022-10-20T19:32:21.279Z,63.60
2022-10-20T19:34:48.041Z,59.70
2022-10-20T19:37:14.723Z,60.47
2022-10-20T19:39:42.356Z,60.90
2022-10-20T19:42:10.488Z,60.53
2022-10-20T19:44:37.891Z,63.17
2022-10-20T19:47:05.516Z,66.60
2022-10-20T19:49:32.495Z,65.40
2022-10-20T19:51:59.490Z,62.43
2022-10-20T19:54:29.134Z,62.40
2022-10-20T19:56:56.203Z,71.00
2022-10-20T19:59:23.112Z,68.10
2022-10-20T20:01:50.393Z,65.87
2022-10-20T20:04:17.083Z,66.17
2022-10-20T20:06:43.867Z,63.03
2022-10-20T20:09:12.041Z,63.43
2022-10-20T20:11:40.054Z,63.00
2022-10-20T20:14:10.762Z,63.83
2022-10-20T20:16:38.200Z,64.53
2022-10-20T20:19:06.319Z,59.47
2022-10-20T20:21:33.110Z,56.87
2022-10-20T20:24:01.895Z,56.93
2022-10-20T20:26:35.692Z,60.27
2022-10-20T20:29:03.259Z,59.03
2022-10-20T20:31:30.234Z,63.77
2022-10-20T20:33:57.288Z,56.00
2022-10-20T20:36:27.064Z,61.97
2022-10-20T20:38:57.416Z,64.97
2022-10-20T20:41:26.605Z,58.43
2022-10-20T20:43:54.639Z,60.40
2022-10-20T20:46:23.085Z,65.00
2022-10-20T20:48:50.241Z,67.27
2022-10-20T20:51:16.951Z,61.47
2022-10-20T20:53:43.774Z,60.00
2022-10-20T20:56:13.030Z,57.33
2022-10-20T20:58:41.920Z,58.23
2022-10-20T21:01:13.213Z,61.97
2022-10-20T21:03:40.656Z,70.23
2022-10-20T21:06:17.445Z,67.13
2022-10-20T21:08:47.610Z,63.27
2022-10-20T21:11:18.236Z,66.93
2022-10-20T21:13:48.216Z,60.07
2022-10-20T21:16:17.684Z,63.23
2022-10-20T21:18:47.685Z,65.97
2022-10-20T21:21:17.439Z,62.67
2022-10-20T21:23:44.603Z,62.13
2022-10-20T21:26:13.434Z,62.00
2022-10-20T21:28:40.987Z,66.33
2022-10-20T21:31:10.450Z,66.73
2022-10-20T21:33:38.124Z,61.23
2022-10-20T21:36:11.198Z,67.23
2022-10-20T21:38:39.007Z,67.63
2022-10-20T21:41:12.569Z,61.73
2022-10-20T21:43:42.155Z,66.93
2022-10-20T21:46:39.057Z,77.87
2022-10-20T21:49:14.612Z,71.93
2022-10-20T21:51:47.659Z,78.90
2022-10-20T21:54:17.171Z,68.57
2022-10-20T21:56:46.274Z,70.80
2022-10-20T21:59:21.726Z,71.83
2022-10-20T22:01:48.801Z,70.33
2022-10-20T22:04:16.018Z,68.83
2022-10-20T22:06:42.987Z,72.93
2022-10-20T22:09:11.764Z,68.50
2022-10-20T22:11:42.222Z,68.67
2022-10-20T22:14:09.039Z,60.17
2022-10-20T22:16:39.001Z,74.27
2022-10-20T22:19:21.602Z,72.40
2022-10-20T22:21:50.027Z,70.47
2022-10-20T22:24:18.713Z,69.17
2022-10-20T22:26:46.298Z,65.77
2022-10-20T22:29:13.164Z,69.43
2022-10-20T22:31:40.795Z,69.57
2022-10-20T22:34:07.998Z,66.27
2022-10-20T22:36:35.173Z,77.57
2022-10-20T22:39:02.423Z,72.00
2022-10-20T22:41:29.205Z,71.03
2022-10-20T22:43:57.119Z,71.53
2022-10-20T22:46:23.856Z,73.63
2022-10-20T22:48:50.534Z,73.60
2022-10-20T22:51:17.414Z,67.30
2022-10-20T22:53:45.300Z,75.60
2022-10-20T22:56:16.097Z,73.63
2022-10-20T22:58:43.425Z,71.97
2022-10-20T23:01:15.853Z,75.97
2022-10-20T23:03:43.420Z,71.43
2022-10-20T23:06:15.260Z,68.67
2022-10-20T23:08:44.729Z,73.00
2022-10-20T23:11:12.539Z,68.03
2022-10-20T23:13:39.205Z,65.23
2022-10-20T23:16:06.235Z,69.67
2022-10-20T23:18:33.203Z,69.80
2022-10-20T23:20:59.988Z,71.30
2022-10-20T23:23:26.829Z,75.07
2022-10-20T23:25:53.579Z,76.20
2022-10-20T23:28:20.643Z,76.17
2022-10-20T23:30:47.776Z,70.27
2022-10-20T23:33:15.227Z,76.77
2022-10-20T23:35:41.912Z,70.77
2022-10-20T23:38:10.204Z,71.57
2022-10-20T23:40:37.433Z,67.23
2022-10-20T23:43:04.414Z,73.03
2022-10-20T23:45:34.045Z,71.90
2022-10-20T23:48:03.660Z,78.97
2022-10-20T23:50:30.365Z,75.53
2022-10-20T23:52:57.049Z,81.50
2022-10-20T23:55:23.789Z,66.83
2022-10-20T23:57:50.828Z,70.87
